createdAt,value
2018-07-16T00:00:23.000Z,31.6
2018-07-16T00:02:23.000Z,31.7
2018-07-16T00:04:23.000Z,31.6
2018-07-16T00:05:23.000Z,31.6
2018-07-16T00:06:23.000Z,31.6
2018-07-16T00:08:23.000Z,31.6
2018-07-16T00:09:23.000Z,31.6
2018-07-16T00:11:23.000Z,31.7
2018-07-16T00:13:08.000Z,31.7
2018-07-16T00:14:23.000Z,31.6
2018-07-16T00:15:23.000Z,31.6
2018-07-16T00:16:23.000Z,31.7
2018-07-16T00:18:23.000Z,31.7
2018-07-16T00:20:23.000Z,31.6
2018-07-16T00:21:23.000Z,31.6
2018-07-16T00:23:23.000Z,31.6
2018-07-16T00:24:23.000Z,31.6
2018-07-16T00:26:23.000Z,31.5
2018-07-16T00:27:23.000Z,31.5
2018-07-16T00:28:23.000Z,31.6
2018-07-16T00:29:23.000Z,31.6
2018-07-16T00:31:23.000Z,31.6
2018-07-16T00:32:23.000Z,31.6
2018-07-16T00:34:23.000Z,31.7
2018-07-16T00:36:23.000Z,31.6
2018-07-16T00:37:23.000Z,31.5
2018-07-16T00:38:23.000Z,31.6
2018-07-16T00:40:23.000Z,31.6
2018-07-16T00:42:23.000Z,31.5
2018-07-16T00:43:23.000Z,31.5
2018-07-16T00:45:23.000Z,31.5
2018-07-16T00:46:23.000Z,31.5
2018-07-16T00:47:23.000Z,31.6
2018-07-16T00:49:23.000Z,31.6
2018-07-16T00:51:23.000Z,31.5
2018-07-16T00:53:23.000Z,31.5
2018-07-16T00:54:23.000Z,31.5
2018-07-16T00:56:23.000Z,31.5
2018-07-16T00:58:23.000Z,31.5
2018-07-16T01:00:23.000Z,31.4
2018-07-16T01:02:23.000Z,31.3
2018-07-16T01:03:23.000Z,31.3
2018-07-16T01:05:23.000Z,31.4
2018-07-16T01:07:23.000Z,31.3
2018-07-16T01:09:23.000Z,31.3
2018-07-16T01:10:23.000Z,31.4
2018-07-16T01:12:23.000Z,31.4
2018-07-16T01:13:23.000Z,31.5
2018-07-16T01:15:23.000Z,31.5
2018-07-16T01:17:08.000Z,31.5
2018-07-16T01:18:23.000Z,31.5
2018-07-16T01:20:23.000Z,31.5
2018-07-16T01:21:23.000Z,31.5
2018-07-16T01:23:23.000Z,31.5
2018-07-16T01:25:23.000Z,31.5
2018-07-16T01:26:23.000Z,31.5
2018-07-16T01:28:23.000Z,31.5
2018-07-16T01:30:23.000Z,31.5
2018-07-16T01:32:23.000Z,31.4
2018-07-16T01:33:23.000Z,31.4
2018-07-16T01:34:23.000Z,31.4
2018-07-16T01:36:23.000Z,31.5
2018-07-16T01:37:23.000Z,31.5
2018-07-16T01:39:23.000Z,31.5
2018-07-16T01:40:23.000Z,31.5
2018-07-16T01:42:23.000Z,31.6
2018-07-16T01:44:23.000Z,31.5
2018-07-16T01:45:23.000Z,31.5
2018-07-16T01:47:23.000Z,31.6
2018-07-16T01:48:23.000Z,31.6
2018-07-16T01:50:23.000Z,31.6
2018-07-16T01:51:23.000Z,31.6
2018-07-16T01:52:23.000Z,31.6
2018-07-16T01:54:23.000Z,31.7
2018-07-16T01:55:23.000Z,31.7
2018-07-16T01:57:23.000Z,31.6
2018-07-16T01:59:23.000Z,31.5
2018-07-16T02:01:08.000Z,31.5
2018-07-16T02:02:23.000Z,31.4
2018-07-16T02:03:23.000Z,31.4
2018-07-16T02:04:23.000Z,31.5
2018-07-16T02:06:23.000Z,31.5
2018-07-16T02:08:23.000Z,31.5
2018-07-16T02:10:23.000Z,31.5
2018-07-16T02:12:08.000Z,31.4
2018-07-16T02:13:23.000Z,31.4
2018-07-16T02:15:23.000Z,31.3
2018-07-16T02:17:23.000Z,31.3
2018-07-16T02:18:23.000Z,31.3
2018-07-16T02:19:23.000Z,31.3
2018-07-16T02:20:23.000Z,31.4
2018-07-16T02:22:23.000Z,31.4
2018-07-16T02:24:23.000Z,31.4
2018-07-16T02:26:23.000Z,31.4
2018-07-16T02:28:23.000Z,31.3
2018-07-16T02:29:23.000Z,31.3
2018-07-16T02:31:23.000Z,31.4
2018-07-16T02:33:23.000Z,31.3
2018-07-16T02:35:23.000Z,31.3
2018-07-16T02:36:23.000Z,31.3
2018-07-16T02:37:23.000Z,31.3
2018-07-16T02:38:23.000Z,31.4
2018-07-16T02:40:23.000Z,31.4
2018-07-16T02:41:23.000Z,31.4
2018-07-16T02:43:08.000Z,31.5
2018-07-16T02:44:23.000Z,31.4
2018-07-16T02:45:23.000Z,31.5
2018-07-16T02:47:23.000Z,31.5
2018-07-16T02:49:23.000Z,31.4
2018-07-16T02:51:23.000Z,31.4
2018-07-16T02:52:23.000Z,31.4
2018-07-16T02:53:23.000Z,31.4
2018-07-16T02:55:23.000Z,31.4
2018-07-16T02:57:23.000Z,31.3
2018-07-16T02:58:23.000Z,31.3
2018-07-16T02:59:23.000Z,31.3
2018-07-16T03:01:23.000Z,31.3
2018-07-16T03:02:23.000Z,31.3
2018-07-16T03:03:23.000Z,31.4
2018-07-16T03:05:23.000Z,31.4
2018-07-16T03:07:23.000Z,31.4
2018-07-16T03:08:23.000Z,31.4
2018-07-16T03:09:23.000Z,31.4
2018-07-16T03:10:23.000Z,31.5
2018-07-16T03:11:23.000Z,31.5
2018-07-16T03:12:23.000Z,31.6
2018-07-16T03:14:23.000Z,31.7
2018-07-16T03:16:23.000Z,31.6
2018-07-16T03:17:23.000Z,31.5
2018-07-16T03:19:23.000Z,31.5
2018-07-16T03:21:08.000Z,31.4
2018-07-16T03:22:23.000Z,31.3
2018-07-16T03:24:23.000Z,31.3
2018-07-16T03:26:23.000Z,31.2
2018-07-16T03:27:23.000Z,31.2
2018-07-16T03:29:23.000Z,31.2
2018-07-16T03:30:23.000Z,31.3
2018-07-16T03:31:23.000Z,31.3
2018-07-16T03:33:23.000Z,31.4
2018-07-16T03:34:23.000Z,31.4
2018-07-16T03:36:23.000Z,31.4
2018-07-16T03:38:08.000Z,31.3
2018-07-16T03:39:23.000Z,31.2
2018-07-16T03:40:23.000Z,31.2
2018-07-16T03:42:23.000Z,31.2
2018-07-16T03:44:23.000Z,31.2
2018-07-16T03:45:23.000Z,31.2
2018-07-16T03:47:23.000Z,31.2
2018-07-16T03:49:23.000Z,31.2
2018-07-16T03:51:23.000Z,31.1
2018-07-16T03:52:23.000Z,31.2
2018-07-16T03:54:23.000Z,31.2
2018-07-16T03:56:23.000Z,31.2
2018-07-16T03:57:23.000Z,31.2
2018-07-16T03:59:23.000Z,31.3
2018-07-16T04:01:23.000Z,31.2
2018-07-16T04:02:23.000Z,31.2
2018-07-16T04:03:23.000Z,31.3
2018-07-16T04:05:23.000Z,31.3
2018-07-16T04:07:08.000Z,31.3
2018-07-16T04:08:23.000Z,31.2
2018-07-16T04:09:23.000Z,31.3
2018-07-16T04:11:23.000Z,31.3
2018-07-16T04:13:23.000Z,31.2
2018-07-16T04:15:23.000Z,31.2
2018-07-16T04:16:23.000Z,31.2
2018-07-16T04:17:23.000Z,31.3
2018-07-16T04:18:23.000Z,31.3
2018-07-16T04:20:23.000Z,31.4
2018-07-16T04:22:23.000Z,31.4
2018-07-16T04:23:23.000Z,31.4
2018-07-16T04:25:23.000Z,31.2
2018-07-16T04:26:23.000Z,30.6
2018-07-16T04:28:08.000Z,29.8
2018-07-16T04:29:23.000Z,29.2
2018-07-16T04:30:23.000Z,28.8
2018-07-16T04:32:23.000Z,28.5
2018-07-16T04:33:23.000Z,28.1
2018-07-16T04:34:23.000Z,28
2018-07-16T04:36:23.000Z,27.9
2018-07-16T04:38:23.000Z,27.9
2018-07-16T04:40:23.000Z,27.7
2018-07-16T04:41:23.000Z,27.5
2018-07-16T04:43:23.000Z,27.3
2018-07-16T04:44:23.000Z,27.3
2018-07-16T04:46:23.000Z,26.9
2018-07-16T04:47:23.000Z,26.8
2018-07-16T04:48:23.000Z,26.6
2018-07-16T04:50:23.000Z,26.3
2018-07-16T04:52:23.000Z,26.1
2018-07-16T04:53:23.000Z,26.1
2018-07-16T04:55:23.000Z,26.2
2018-07-16T04:56:23.000Z,26.4
2018-07-16T04:57:23.000Z,26.4
2018-07-16T04:59:23.000Z,26.2
2018-07-16T05:01:23.000Z,26
2018-07-16T05:03:23.000Z,26
2018-07-16T05:05:23.000Z,25.9
2018-07-16T05:06:23.000Z,25.8
2018-07-16T05:08:08.000Z,25.8
2018-07-16T05:09:23.000Z,25.8
2018-07-16T05:11:23.000Z,25.6
2018-07-16T05:12:23.000Z,25.5
2018-07-16T05:13:23.000Z,25.5
2018-07-16T05:15:23.000Z,25.5
2018-07-16T05:17:23.000Z,25.1
2018-07-16T05:18:23.000Z,24.8
2018-07-16T05:20:08.000Z,24.4
2018-07-16T05:21:23.000Z,24
2018-07-16T05:23:23.000Z,23.5
2018-07-16T05:25:23.000Z,23.2
2018-07-16T05:26:23.000Z,23.1
2018-07-16T05:28:23.000Z,23
2018-07-16T05:30:23.000Z,22.9
2018-07-16T05:32:23.000Z,22.9
2018-07-16T05:34:23.000Z,22.9
2018-07-16T05:35:23.000Z,23
2018-07-16T05:37:23.000Z,23
2018-07-16T05:39:23.000Z,23.1
2018-07-16T05:40:23.000Z,23.3
2018-07-16T05:41:23.000Z,23.4
2018-07-16T05:42:23.000Z,23.5
2018-07-16T05:44:23.000Z,23.5
2018-07-16T05:46:23.000Z,23.6
2018-07-16T05:47:23.000Z,23.7
2018-07-16T05:49:23.000Z,23.9
2018-07-16T05:51:23.000Z,24.2
2018-07-16T05:52:23.000Z,24.3
2018-07-16T05:54:23.000Z,24.3
2018-07-16T05:56:23.000Z,24.3
2018-07-16T06:00:09.000Z,24
2018-07-16T06:01:09.000Z,24
2018-07-16T06:03:09.000Z,24.1
2018-07-16T06:05:09.000Z,24.4
2018-07-16T06:07:09.000Z,24.8
2018-07-16T06:08:09.000Z,25
2018-07-16T06:10:09.000Z,25.4
2018-07-16T06:11:09.000Z,25.6
2018-07-16T06:12:09.000Z,25.8
2018-07-16T06:14:09.000Z,26
2018-07-16T06:16:09.000Z,26.2
2018-07-16T06:18:09.000Z,26.4
2018-07-16T06:19:09.000Z,26.5
2018-07-16T06:20:09.000Z,26.6
2018-07-16T06:21:09.000Z,26.7
2018-07-16T06:22:09.000Z,26.8
2018-07-16T06:23:09.000Z,26.9
2018-07-16T06:25:09.000Z,27
2018-07-16T06:26:09.000Z,27
2018-07-16T06:28:09.000Z,27.1
2018-07-16T06:29:09.000Z,27.1
2018-07-16T06:30:54.000Z,27.1
2018-07-16T06:32:09.000Z,27.1
2018-07-16T06:33:09.000Z,27
2018-07-16T06:35:09.000Z,27.1
2018-07-16T06:36:09.000Z,27.1
2018-07-16T06:38:09.000Z,27.1
2018-07-16T06:39:09.000Z,27.1
2018-07-16T06:41:09.000Z,27
2018-07-16T06:43:09.000Z,27
2018-07-16T06:44:09.000Z,27
2018-07-16T06:45:09.000Z,27
2018-07-16T06:46:54.000Z,27.1
2018-07-16T06:48:09.000Z,27.1
2018-07-16T06:49:54.000Z,27.1
2018-07-16T06:51:09.000Z,27
2018-07-16T06:53:09.000Z,27.1
2018-07-16T06:55:09.000Z,26.9
2018-07-16T06:56:09.000Z,26.8
2018-07-16T06:57:54.000Z,26.7
2018-07-16T06:59:09.000Z,26.7
2018-07-16T07:01:09.000Z,26.8
2018-07-16T07:02:09.000Z,26.9
2018-07-16T07:04:09.000Z,26.9
2018-07-16T07:06:09.000Z,26.8
2018-07-16T07:08:09.000Z,27
2018-07-16T07:10:09.000Z,27
2018-07-16T07:11:09.000Z,27.1
2018-07-16T07:12:09.000Z,27.2
2018-07-16T07:13:54.000Z,27.5
2018-07-16T07:15:09.000Z,27.6
2018-07-16T07:17:09.000Z,27.6
2018-07-16T07:19:09.000Z,27.7
2018-07-16T07:20:09.000Z,27.8
2018-07-16T07:22:09.000Z,27.9
2018-07-16T07:24:09.000Z,27.9
2018-07-16T07:26:09.000Z,27.6
2018-07-16T07:28:09.000Z,27.6
2018-07-16T07:29:09.000Z,27.7
2018-07-16T07:30:09.000Z,27.9
2018-07-16T07:32:09.000Z,28
2018-07-16T07:34:09.000Z,28.2
2018-07-16T07:35:09.000Z,28.3
2018-07-16T07:37:09.000Z,28.4
2018-07-16T07:39:09.000Z,28.5
2018-07-16T07:40:09.000Z,28.5
2018-07-16T07:41:09.000Z,28.6
2018-07-16T07:43:09.000Z,28.8
2018-07-16T07:44:54.000Z,28.8
2018-07-16T07:46:09.000Z,28.8
2018-07-16T07:47:09.000Z,28.9
2018-07-16T07:49:09.000Z,29
2018-07-16T07:50:54.000Z,29
2018-07-16T07:52:09.000Z,29
2018-07-16T07:54:09.000Z,29
2018-07-16T07:56:09.000Z,28.9
2018-07-16T07:57:09.000Z,28.8
2018-07-16T07:59:09.000Z,28.9
2018-07-16T08:00:09.000Z,28.9
2018-07-16T08:02:09.000Z,29.1
2018-07-16T08:03:09.000Z,29.2
2018-07-16T08:04:09.000Z,29.4
2018-07-16T08:06:09.000Z,29.5
2018-07-16T08:07:54.000Z,29.5
2018-07-16T08:09:09.000Z,29.4
2018-07-16T08:10:09.000Z,29.4
2018-07-16T08:11:54.000Z,29.5
2018-07-16T08:13:09.000Z,29.5
2018-07-16T08:14:09.000Z,29.5
2018-07-16T08:15:09.000Z,29.5
2018-07-16T08:16:54.000Z,29.7
2018-07-16T08:18:09.000Z,29.8
2018-07-16T08:19:09.000Z,29.9
2018-07-16T08:21:09.000Z,30.1
2018-07-16T08:23:09.000Z,30.2
2018-07-16T08:25:09.000Z,30.2
2018-07-16T08:26:09.000Z,30.2
2018-07-16T08:28:09.000Z,30.3
2018-07-16T08:29:09.000Z,30.3
2018-07-16T08:31:09.000Z,30.4
2018-07-16T08:33:09.000Z,30.8
2018-07-16T08:34:09.000Z,31.1
2018-07-16T08:36:09.000Z,32
2018-07-16T08:37:09.000Z,32.4
2018-07-16T08:38:09.000Z,32.8
2018-07-16T08:40:09.000Z,33.5
2018-07-16T08:42:09.000Z,33.6
2018-07-16T08:44:09.000Z,33
2018-07-16T08:46:09.000Z,32.3
2018-07-16T08:48:09.000Z,31.6
2018-07-16T08:50:09.000Z,31.1
2018-07-16T08:51:09.000Z,30.9
2018-07-16T08:52:09.000Z,30.9
2018-07-16T08:53:09.000Z,30.9
2018-07-16T08:54:53.000Z,30.9
2018-07-16T08:56:09.000Z,30.8
2018-07-16T08:58:09.000Z,30.8
2018-07-16T09:00:09.000Z,30.8
2018-07-16T09:01:09.000Z,30.8
2018-07-16T09:03:09.000Z,30.8
2018-07-16T09:05:09.000Z,30.8
2018-07-16T09:07:09.000Z,30.8
2018-07-16T09:09:09.000Z,30.7
2018-07-16T09:10:09.000Z,30.8
2018-07-16T09:12:09.000Z,30.8
2018-07-16T09:13:09.000Z,30.7
2018-07-16T09:14:09.000Z,30.6
2018-07-16T09:15:53.000Z,30.6
2018-07-16T09:17:09.000Z,30.4
2018-07-16T09:18:09.000Z,30.4
2018-07-16T09:19:54.000Z,30.6
2018-07-16T09:21:09.000Z,30.7
2018-07-16T09:23:09.000Z,30.8
2018-07-16T09:24:09.000Z,30.8
2018-07-16T09:25:09.000Z,30.9
2018-07-16T09:26:09.000Z,31.1
2018-07-16T09:28:09.000Z,31.2
2018-07-16T09:29:09.000Z,31.3
2018-07-16T09:30:09.000Z,31.3
2018-07-16T09:31:53.000Z,31.4
2018-07-16T09:33:09.000Z,31.3
2018-07-16T09:34:09.000Z,31.3
2018-07-16T09:36:09.000Z,31.4
2018-07-16T09:37:09.000Z,31.4
2018-07-16T09:39:09.000Z,31.3
2018-07-16T09:40:09.000Z,31.2
2018-07-16T09:42:09.000Z,31.2
2018-07-16T09:43:53.000Z,31.2
2018-07-16T09:45:09.000Z,31.2
2018-07-16T09:47:09.000Z,31.4
2018-07-16T09:49:09.000Z,31.4
2018-07-16T09:51:09.000Z,31.3
2018-07-16T09:53:09.000Z,31.3
2018-07-16T09:54:09.000Z,31.4
2018-07-16T09:55:09.000Z,31.4
2018-07-16T09:57:08.000Z,31.6
2018-07-16T09:58:08.000Z,31.8
2018-07-16T09:59:53.000Z,32
2018-07-16T10:01:08.000Z,32.1
2018-07-16T10:02:08.000Z,32.2
2018-07-16T10:04:08.000Z,32.3
2018-07-16T10:06:08.000Z,32.5
2018-07-16T10:08:08.000Z,32.5
2018-07-16T10:10:08.000Z,32.6
2018-07-16T10:11:08.000Z,32.6
2018-07-16T10:13:08.000Z,32.7
2018-07-16T10:14:08.000Z,32.8
2018-07-16T10:15:08.000Z,32.9
2018-07-16T10:16:08.000Z,33
2018-07-16T10:18:08.000Z,33.2
2018-07-16T10:20:08.000Z,33.1
2018-07-16T10:22:08.000Z,33.1
2018-07-16T10:23:08.000Z,33.1
2018-07-16T10:24:08.000Z,33.2
2018-07-16T10:26:08.000Z,33.3
2018-07-16T10:28:08.000Z,33.3
2018-07-16T10:29:08.000Z,33.4
2018-07-16T10:31:08.000Z,33.4
2018-07-16T10:32:08.000Z,33.5
2018-07-16T10:33:08.000Z,33.5
2018-07-16T10:35:08.000Z,33.7
2018-07-16T10:37:08.000Z,33.7
2018-07-16T10:39:08.000Z,33.7
2018-07-16T10:40:08.000Z,33.7
2018-07-16T10:41:53.000Z,33.7
2018-07-16T10:43:08.000Z,33.8
2018-07-16T10:45:08.000Z,33.8
2018-07-16T10:46:08.000Z,33.8
2018-07-16T10:48:08.000Z,33.9
2018-07-16T10:49:08.000Z,33.9
2018-07-16T10:51:08.000Z,34
2018-07-16T10:52:08.000Z,34
2018-07-16T10:53:08.000Z,34.1
2018-07-16T10:55:08.000Z,34.2
2018-07-16T10:56:08.000Z,34.3
2018-07-16T10:58:08.000Z,34.3
2018-07-16T11:00:08.000Z,34.2
2018-07-16T11:02:08.000Z,34.1
2018-07-16T11:03:08.000Z,34
2018-07-16T11:05:08.000Z,34.1
2018-07-16T11:07:08.000Z,34.1
2018-07-16T11:09:08.000Z,34.2
2018-07-16T11:11:08.000Z,34.2
2018-07-16T11:12:08.000Z,34.3
2018-07-16T11:13:08.000Z,34.4
2018-07-16T11:14:08.000Z,34.5
2018-07-16T11:15:08.000Z,34.5
2018-07-16T11:17:08.000Z,34.7
2018-07-16T11:19:08.000Z,34.6
2018-07-16T11:21:08.000Z,34.5
2018-07-16T11:23:08.000Z,34.5
2018-07-16T11:25:08.000Z,34.5
2018-07-16T11:26:08.000Z,34.5
2018-07-16T11:28:08.000Z,34.6
2018-07-16T11:29:08.000Z,34.7
2018-07-16T11:31:08.000Z,34.8
2018-07-16T11:32:53.000Z,34.8
2018-07-16T11:34:08.000Z,34.8
2018-07-16T11:35:08.000Z,34.8
2018-07-16T11:36:08.000Z,34.9
2018-07-16T11:38:08.000Z,34.8
2018-07-16T11:40:08.000Z,34.7
2018-07-16T11:41:08.000Z,34.7
2018-07-16T11:43:08.000Z,34.8
2018-07-16T11:44:08.000Z,34.7
2018-07-16T11:45:08.000Z,34.6
2018-07-16T11:47:08.000Z,34.3
2018-07-16T11:49:08.000Z,33.9
2018-07-16T11:51:08.000Z,33.6
2018-07-16T11:53:08.000Z,33.4
2018-07-16T11:55:08.000Z,33.3
2018-07-16T11:57:08.000Z,33.2
2018-07-16T11:59:08.000Z,33.3
2018-07-16T12:00:08.000Z,33.4
2018-07-16T12:02:08.000Z,33.6
2018-07-16T12:03:09.000Z,33.6
2018-07-16T12:04:09.000Z,33.7
2018-07-16T12:06:09.000Z,33.8
2018-07-16T12:07:54.000Z,33.7
2018-07-16T12:09:09.000Z,33.7
2018-07-16T12:11:09.000Z,33.7
2018-07-16T12:13:09.000Z,33.8
2018-07-16T12:14:09.000Z,33.8
2018-07-16T12:16:09.000Z,33.8
2018-07-16T12:17:09.000Z,33.9
2018-07-16T12:19:09.000Z,34
2018-07-16T12:20:09.000Z,34
2018-07-16T12:21:09.000Z,34.1
2018-07-16T12:22:09.000Z,34.1
2018-07-16T12:23:09.000Z,34.2
2018-07-16T12:25:09.000Z,34.4
2018-07-16T12:27:09.000Z,34.4
2018-07-16T12:29:09.000Z,34.3
2018-07-16T12:30:09.000Z,34.3
2018-07-16T12:31:09.000Z,34.3
2018-07-16T12:33:09.000Z,34.2
2018-07-16T12:35:09.000Z,34.2
2018-07-16T12:36:09.000Z,34.3
2018-07-16T12:38:09.000Z,34.4
2018-07-16T12:40:09.000Z,34.6
2018-07-16T12:41:09.000Z,34.6
2018-07-16T12:42:09.000Z,34.7
2018-07-16T12:44:09.000Z,34.7
2018-07-16T12:45:09.000Z,34.7
2018-07-16T12:47:09.000Z,34.7
2018-07-16T12:49:09.000Z,34.5
2018-07-16T12:50:09.000Z,34.5
2018-07-16T12:52:09.000Z,34.5
2018-07-16T12:54:09.000Z,34.5
2018-07-16T12:56:09.000Z,34.5
2018-07-16T12:57:54.000Z,34.4
2018-07-16T12:59:09.000Z,34.4
2018-07-16T13:00:09.000Z,34.4
2018-07-16T13:02:09.000Z,34.5
2018-07-16T13:03:09.000Z,34.5
2018-07-16T13:04:09.000Z,34.6
2018-07-16T13:05:09.000Z,34.6
2018-07-16T13:06:09.000Z,34.7
2018-07-16T13:07:09.000Z,34.7
2018-07-16T13:09:09.000Z,34.7
2018-07-16T13:10:09.000Z,34.7
2018-07-16T13:12:09.000Z,34.7
2018-07-16T13:14:09.000Z,34.7
2018-07-16T13:16:09.000Z,34.7
2018-07-16T13:17:09.000Z,34.8
2018-07-16T13:19:09.000Z,34.8
2018-07-16T13:20:09.000Z,34.8
2018-07-16T13:21:09.000Z,34.8
2018-07-16T13:22:54.000Z,34.8
2018-07-16T13:24:09.000Z,34.8
2018-07-16T13:25:09.000Z,34.8
2018-07-16T13:26:09.000Z,34.8
2018-07-16T13:28:09.000Z,34.9
2018-07-16T13:29:09.000Z,34.9
2018-07-16T13:30:09.000Z,34.9
2018-07-16T13:32:09.000Z,35
2018-07-16T13:34:09.000Z,35.1
2018-07-16T13:36:09.000Z,35
2018-07-16T13:37:09.000Z,35
2018-07-16T13:38:09.000Z,35
2018-07-16T13:40:09.000Z,35
2018-07-16T13:42:09.000Z,34.9
2018-07-16T13:43:09.000Z,34.9
2018-07-16T13:45:09.000Z,34.9
2018-07-16T13:46:09.000Z,34.8
2018-07-16T13:48:09.000Z,34.8
2018-07-16T13:49:09.000Z,34.9
2018-07-16T13:50:09.000Z,34.9
2018-07-16T13:51:09.000Z,35
2018-07-16T13:53:09.000Z,34.9
2018-07-16T13:55:09.000Z,34.8
2018-07-16T13:57:09.000Z,34.7
2018-07-16T13:59:09.000Z,34.7
2018-07-16T14:01:09.000Z,34.7
2018-07-16T14:02:54.000Z,34.8
2018-07-16T14:04:09.000Z,34.8
2018-07-16T14:05:54.000Z,34.8
2018-07-16T14:07:09.000Z,34.8
2018-07-16T14:09:09.000Z,34.8
2018-07-16T14:10:54.000Z,34
2018-07-16T14:12:09.000Z,34.8
2018-07-16T14:14:09.000Z,34.8
2018-07-16T14:15:53.000Z,34.9
2018-07-16T14:17:09.000Z,34.9
2018-07-16T14:18:09.000Z,34.9
2018-07-16T14:19:09.000Z,34.9
2018-07-16T14:21:09.000Z,34.9
2018-07-16T14:22:09.000Z,34.9
2018-07-16T14:23:09.000Z,34.9
2018-07-16T14:25:09.000Z,35
2018-07-16T14:27:09.000Z,34.9
2018-07-16T14:29:09.000Z,34.9
2018-07-16T14:30:09.000Z,34.9
2018-07-16T14:32:09.000Z,34.9
2018-07-16T14:33:53.000Z,34.9
2018-07-16T14:35:09.000Z,34.8
2018-07-16T14:36:09.000Z,34.8
2018-07-16T14:37:09.000Z,34.9
2018-07-16T14:39:09.000Z,35
2018-07-16T14:41:09.000Z,35
2018-07-16T14:43:09.000Z,34.9
2018-07-16T14:44:09.000Z,34.9
2018-07-16T14:46:09.000Z,34.9
2018-07-16T14:48:09.000Z,34.9
2018-07-16T14:50:09.000Z,34.8
2018-07-16T14:51:09.000Z,34.8
2018-07-16T14:52:09.000Z,34.9
2018-07-16T14:53:09.000Z,34.9
2018-07-16T14:55:09.000Z,34.8
2018-07-16T14:56:09.000Z,34.9
2018-07-16T14:58:09.000Z,34.9
2018-07-16T15:00:09.000Z,34.8
2018-07-16T15:02:09.000Z,34.6
2018-07-16T15:03:53.000Z,34.5
2018-07-16T15:05:09.000Z,34.4
2018-07-16T15:07:09.000Z,34.3
2018-07-16T15:08:09.000Z,34.3
2018-07-16T15:10:09.000Z,34.3
2018-07-16T15:11:09.000Z,34.3
2018-07-16T15:13:09.000Z,34.3
2018-07-16T15:15:09.000Z,34.2
2018-07-16T15:16:09.000Z,34.1
2018-07-16T15:18:09.000Z,34.1
2018-07-16T15:19:09.000Z,34.1
2018-07-16T15:21:09.000Z,34.1
2018-07-16T15:22:09.000Z,34.1
2018-07-16T15:23:09.000Z,34.1
2018-07-16T15:25:09.000Z,34
2018-07-16T15:27:09.000Z,34
2018-07-16T15:29:09.000Z,34
2018-07-16T15:31:09.000Z,33.9
2018-07-16T15:32:09.000Z,33.9
2018-07-16T15:34:09.000Z,33.9
2018-07-16T15:36:09.000Z,33.8
2018-07-16T15:37:09.000Z,33.8
2018-07-16T15:39:09.000Z,33.9
2018-07-16T15:41:09.000Z,33.9
2018-07-16T15:42:54.000Z,33.8
2018-07-16T15:44:09.000Z,33.8
2018-07-16T15:46:09.000Z,33.8
2018-07-16T15:47:09.000Z,33.8
2018-07-16T15:48:09.000Z,33.8
2018-07-16T15:50:09.000Z,33.9
2018-07-16T15:51:09.000Z,33.9
2018-07-16T15:52:09.000Z,34
2018-07-16T15:54:09.000Z,34
2018-07-16T15:55:09.000Z,34
2018-07-16T15:56:09.000Z,34
2018-07-16T15:57:54.000Z,34.1
2018-07-16T15:59:09.000Z,34
2018-07-16T16:00:09.000Z,34
2018-07-16T16:02:09.000Z,34
2018-07-16T16:03:09.000Z,34
2018-07-16T16:04:09.000Z,34
2018-07-16T16:06:09.000Z,34
2018-07-16T16:08:09.000Z,34
2018-07-16T16:09:09.000Z,33.9
2018-07-16T16:11:09.000Z,33.9
2018-07-16T16:13:09.000Z,33.9
2018-07-16T16:14:09.000Z,33.8
2018-07-16T16:15:09.000Z,33.9
2018-07-16T16:17:09.000Z,33.8
2018-07-16T16:18:08.000Z,33.8
2018-07-16T16:19:08.000Z,33.8
2018-07-16T16:20:08.000Z,33.9
2018-07-16T16:22:08.000Z,33.9
2018-07-16T16:23:08.000Z,33.9
2018-07-16T16:25:08.000Z,33.9
2018-07-16T16:27:08.000Z,33.7
2018-07-16T16:29:08.000Z,33.7
2018-07-16T16:31:08.000Z,33.6
2018-07-16T16:32:53.000Z,33.5
2018-07-16T16:34:08.000Z,33.5
2018-07-16T16:35:53.000Z,33.5
2018-07-16T16:37:08.000Z,33.5
2018-07-16T16:38:08.000Z,33.5
2018-07-16T16:40:08.000Z,33.5
2018-07-16T16:41:08.000Z,33.5
2018-07-16T16:43:08.000Z,33.5
2018-07-16T16:44:08.000Z,33.6
2018-07-16T16:46:08.000Z,33.6
2018-07-16T16:47:08.000Z,33.6
2018-07-16T16:48:53.000Z,33.8
2018-07-16T16:50:08.000Z,33.8
2018-07-16T16:51:53.000Z,33.8
2018-07-16T16:53:08.000Z,33.8
2018-07-16T16:54:08.000Z,33.9
2018-07-16T16:56:08.000Z,33.9
2018-07-16T16:58:08.000Z,34
2018-07-16T16:59:08.000Z,34
2018-07-16T17:00:08.000Z,34
2018-07-16T17:02:08.000Z,34
2018-07-16T17:03:08.000Z,34
2018-07-16T17:05:08.000Z,34.1
2018-07-16T17:06:08.000Z,34.1
2018-07-16T17:08:08.000Z,34.1
2018-07-16T17:09:08.000Z,34.2
2018-07-16T17:11:08.000Z,34.2
2018-07-16T17:13:08.000Z,34.2
2018-07-16T17:15:08.000Z,34.1
2018-07-16T17:17:08.000Z,34.1
2018-07-16T17:18:08.000Z,34.1
2018-07-16T17:20:08.000Z,34.1
2018-07-16T17:21:54.000Z,34
2018-07-16T17:23:09.000Z,34
2018-07-16T17:25:09.000Z,34
2018-07-16T17:27:09.000Z,33.9
2018-07-16T17:29:09.000Z,33.9
2018-07-16T17:30:09.000Z,33.9
2018-07-16T17:31:54.000Z,33.9
2018-07-16T17:33:09.000Z,33.9
2018-07-16T17:35:09.000Z,33.9
2018-07-16T17:37:09.000Z,33.9
2018-07-16T17:39:09.000Z,33.9
2018-07-16T17:41:09.000Z,33.9
2018-07-16T17:42:09.000Z,33.9
2018-07-16T17:44:09.000Z,33.9
2018-07-16T17:45:54.000Z,33.9
2018-07-16T17:47:09.000Z,33.8
2018-07-16T17:49:09.000Z,33.8
2018-07-16T17:50:09.000Z,33.8
2018-07-16T17:52:09.000Z,33.9
2018-07-16T17:54:09.000Z,33.8
2018-07-16T17:56:09.000Z,33.7
2018-07-16T17:57:09.000Z,33.7
2018-07-16T17:58:09.000Z,33.7
2018-07-16T18:00:09.000Z,33.7
2018-07-16T18:02:09.000Z,33.7
2018-07-16T18:04:09.000Z,33.7
2018-07-16T18:06:09.000Z,33.6
2018-07-16T18:07:09.000Z,33.6
2018-07-16T18:09:09.000Z,33.6
2018-07-16T18:11:09.000Z,33.7
2018-07-16T18:12:09.000Z,33.7
2018-07-16T18:14:09.000Z,33.7
2018-07-16T18:16:09.000Z,33.7
2018-07-16T18:18:09.000Z,33.7
2018-07-16T18:20:09.000Z,33.7
2018-07-16T18:21:09.000Z,33.7
2018-07-16T18:23:09.000Z,33.7
2018-07-16T18:24:09.000Z,33.7
2018-07-16T18:26:09.000Z,33.8
2018-07-16T18:27:09.000Z,33.8
2018-07-16T18:29:09.000Z,33.8
2018-07-16T18:31:09.000Z,33.7
2018-07-16T18:32:09.000Z,33.7
2018-07-16T18:34:09.000Z,33.8
2018-07-16T18:36:09.000Z,33.7
2018-07-16T18:38:09.000Z,33.6
2018-07-16T18:40:09.000Z,33.6
2018-07-16T18:41:09.000Z,33.6
2018-07-16T18:42:09.000Z,33.6
2018-07-16T18:43:09.000Z,33.7
2018-07-16T18:44:54.000Z,33.7
2018-07-16T18:46:09.000Z,33.7
2018-07-16T18:48:09.000Z,33.6
2018-07-16T18:50:09.000Z,33.5
2018-07-16T18:52:09.000Z,33.5
2018-07-16T18:53:54.000Z,33.5
2018-07-16T18:55:09.000Z,33.4
2018-07-16T18:56:09.000Z,33.5
2018-07-16T18:58:09.000Z,33.5
2018-07-16T18:59:09.000Z,33.5
2018-07-16T19:01:09.000Z,33.6
2018-07-16T19:03:09.000Z,33.5
2018-07-16T19:04:09.000Z,33.5
2018-07-16T19:05:54.000Z,33.5
2018-07-16T19:07:09.000Z,33.5
2018-07-16T19:08:09.000Z,33.5
2018-07-16T19:09:09.000Z,33.5
2018-07-16T19:10:09.000Z,33.5
2018-07-16T19:11:09.000Z,33.6
2018-07-16T19:12:09.000Z,33.7
2018-07-16T19:14:09.000Z,33.7
2018-07-16T19:15:09.000Z,33.7
2018-07-16T19:17:09.000Z,33.7
2018-07-16T19:18:54.000Z,33.6
2018-07-16T19:20:09.000Z,33.5
2018-07-16T19:22:09.000Z,33.4
2018-07-16T19:23:09.000Z,33.4
2018-07-16T19:25:09.000Z,33.4
2018-07-16T19:27:09.000Z,33.3
2018-07-16T19:29:09.000Z,33.2
2018-07-16T19:31:09.000Z,33.2
2018-07-16T19:32:09.000Z,33.2
2018-07-16T19:33:09.000Z,33.2
2018-07-16T19:35:09.000Z,33.2
2018-07-16T19:37:09.000Z,33.2
2018-07-16T19:39:09.000Z,33.2
2018-07-16T19:40:54.000Z,33.2
2018-07-16T19:42:09.000Z,33.1
2018-07-16T19:44:09.000Z,33.1
2018-07-16T19:46:09.000Z,33
2018-07-16T19:47:54.000Z,33
2018-07-16T19:49:09.000Z,33
2018-07-16T19:50:09.000Z,33
2018-07-16T19:52:09.000Z,33
2018-07-16T19:54:09.000Z,33.1
2018-07-16T19:55:09.000Z,33.1
2018-07-16T19:57:09.000Z,33.1
2018-07-16T19:59:09.000Z,33.1
2018-07-16T20:00:54.000Z,33.1
2018-07-16T20:02:09.000Z,33
2018-07-16T20:03:09.000Z,33
2018-07-16T20:05:09.000Z,33
2018-07-16T20:06:09.000Z,33
2018-07-16T20:08:09.000Z,33
2018-07-16T20:10:09.000Z,33
2018-07-16T20:12:09.000Z,32.9
2018-07-16T20:14:09.000Z,32.9
2018-07-16T20:15:09.000Z,32.9
2018-07-16T20:16:09.000Z,33
2018-07-16T20:17:54.000Z,33.1
2018-07-16T20:19:09.000Z,33
2018-07-16T20:20:09.000Z,33
2018-07-16T20:21:09.000Z,33.1
2018-07-16T20:22:09.000Z,33.2
2018-07-16T20:23:09.000Z,33.2
2018-07-16T20:25:09.000Z,33.2
2018-07-16T20:26:09.000Z,33.2
2018-07-16T20:28:09.000Z,33.2
2018-07-16T20:30:09.000Z,33.1
2018-07-16T20:32:09.000Z,32.9
2018-07-16T20:34:09.000Z,32.8
2018-07-16T20:35:09.000Z,32.8
2018-07-16T20:37:09.000Z,32.8
2018-07-16T20:38:53.000Z,32.8
2018-07-16T20:40:09.000Z,32.8
2018-07-16T20:41:09.000Z,32.8
2018-07-16T20:42:09.000Z,32.9
2018-07-16T20:44:09.000Z,33
2018-07-16T20:45:09.000Z,33
2018-07-16T20:47:09.000Z,33
2018-07-16T20:48:09.000Z,33.1
2018-07-16T20:50:09.000Z,33.1